createdAt,value
2023-01-13T00:01:29.543Z,98570.88
2023-01-13T00:03:57.630Z,98552.53
2023-01-13T00:06:26.271Z,98565.44
2023-01-13T00:08:54.582Z,98553.53
2023-01-13T00:11:23.131Z,98552.41
2023-01-13T00:13:50.564Z,98545.16
2023-01-13T00:16:20.788Z,98535.84
2023-01-13T00:18:51.196Z,98529.38
2023-01-13T00:21:24.467Z,98524.91
2023-01-13T00:23:55.876Z,98535.25
2023-01-13T00:26:30.587Z,98518.47
2023-01-13T00:29:00.322Z,98531.38
2023-01-13T00:31:30.003Z,98536.44
2023-01-13T00:34:00.358Z,98541.47
2023-01-13T00:36:29.317Z,98542.06
2023-01-13T00:38:57.685Z,98534.47
2023-01-13T00:41:26.795Z,98532.88
2023-01-13T00:43:54.072Z,98518.84
2023-01-13T00:46:22.782Z,98523.59
2023-01-13T00:48:51.455Z,98521.66
2023-01-13T00:51:21.467Z,98516.34
2023-01-13T00:53:52.083Z,98507.75
2023-01-13T00:56:39.864Z,98512.72
2023-01-13T00:59:12.614Z,98496.88
2023-01-13T01:01:43.673Z,98497.13
2023-01-13T01:04:12.122Z,98499.66
2023-01-13T01:06:39.538Z,98497.44
2023-01-13T01:09:07.432Z,98495.78
2023-01-13T01:11:35.444Z,98489.63
2023-01-13T01:14:04.648Z,98485.72
2023-01-13T01:16:34.123Z,98479.59
2023-01-13T01:19:02.513Z,98483.75
2023-01-13T01:21:29.924Z,98474.50
2023-01-13T01:24:02.352Z,98497.06
2023-01-13T01:26:31.731Z,98491.78
2023-01-13T01:29:02.016Z,98492.16
2023-01-13T01:31:33.515Z,98491.03
2023-01-13T01:34:01.730Z,98487.41
2023-01-13T01:36:33.343Z,98490.75
2023-01-13T01:39:00.873Z,98488.78
2023-01-13T01:41:33.024Z,98486.81
2023-01-13T01:44:43.437Z,98491.59
2023-01-13T01:47:18.372Z,98479.03
2023-01-13T01:49:46.920Z,98484.88
2023-01-13T01:52:34.480Z,98484.28
2023-01-13T01:55:33.739Z,98480.69
2023-01-13T01:58:22.536Z,98476.81
2023-01-13T02:00:49.880Z,98474.53
2023-01-13T02:03:18.672Z,98470.34
2023-01-13T02:05:45.929Z,98470.66
2023-01-13T02:08:19.566Z,98465.91
2023-01-13T02:10:54.046Z,98459.75
2023-01-13T02:13:23.077Z,98460.59
2023-01-13T02:16:24.351Z,98463.94
2023-01-13T02:19:53.400Z,98468.66
2023-01-13T02:23:05.754Z,98455.84
2023-01-13T02:26:03.876Z,98453.59
2023-01-13T02:29:42.381Z,98453.06
2023-01-13T02:32:39.883Z,98449.72
2023-01-13T02:35:51.484Z,98444.94
2023-01-13T02:38:33.591Z,98441.63
2023-01-13T02:41:31.628Z,98445.53
2023-01-13T02:44:06.989Z,98422.91
2023-01-13T02:46:56.283Z,98426.84
2023-01-13T02:49:39.071Z,98431.03
2023-01-13T02:52:21.940Z,98427.66
2023-01-13T02:54:59.208Z,98436.56
2023-01-13T02:57:29.951Z,98432.16
2023-01-13T02:59:57.952Z,98426.28
2023-01-13T03:02:26.339Z,98417.63
2023-01-13T03:04:59.742Z,98408.44
2023-01-13T03:08:23.721Z,98403.66
2023-01-13T03:11:19.968Z,98401.16
2023-01-13T03:14:22.562Z,98399.19
2023-01-13T03:17:22.527Z,98407.03
2023-01-13T03:20:06.443Z,98396.13
2023-01-13T03:22:47.012Z,98407.84
2023-01-13T03:25:36.749Z,98414.28
2023-01-13T03:28:25.945Z,98413.97
2023-01-13T03:31:24.793Z,98415.94
2023-01-13T03:34:03.825Z,98420.41
2023-01-13T03:36:36.525Z,98409.50
2023-01-13T03:39:19.196Z,98395.25
2023-01-13T03:42:01.042Z,98408.97
2023-01-13T03:44:47.712Z,98394.06
2023-01-13T03:47:41.164Z,98392.72
2023-01-13T03:50:31.130Z,98390.75
2023-01-13T03:53:11.591Z,98389.94
2023-01-13T03:55:48.995Z,98391.34
2023-01-13T03:58:44.345Z,98381.91
2023-01-13T04:01:54.437Z,98383.53
2023-01-13T04:04:57.903Z,98388.28
2023-01-13T04:08:21.444Z,98382.44
2023-01-13T04:11:07.605Z,98373.50
2023-01-13T04:13:42.044Z,98362.31
2023-01-13T04:16:12.066Z,98365.41
2023-01-13T04:18:40.348Z,98347.03
2023-01-13T04:21:08.754Z,98358.72
2023-01-13T04:23:35.982Z,98365.66
2023-01-13T04:26:03.880Z,98357.59
2023-01-13T04:28:31.233Z,98363.97
2023-01-13T04:30:58.438Z,98362.63
2023-01-13T04:33:25.767Z,98359.28
2023-01-13T04:35:53.325Z,98364.03
2023-01-13T04:38:22.110Z,98370.75
2023-01-13T04:40:49.596Z,98366.56
2023-01-13T04:43:17.663Z,98374.63
2023-01-13T04:45:45.601Z,98362.38
2023-01-13T04:48:13.608Z,98367.97
2023-01-13T04:50:41.718Z,98366.88
2023-01-13T04:53:09.073Z,98365.13
2023-01-13T04:55:36.503Z,98365.59
2023-01-13T04:58:10.530Z,98350.00
2023-01-13T05:00:39.033Z,98353.44
2023-01-13T05:03:06.463Z,98348.59
2023-01-13T05:05:34.271Z,98354.94
2023-01-13T05:08:01.903Z,98356.91
2023-01-13T05:10:29.463Z,98349.53
2023-01-13T05:13:15.719Z,98354.91
2023-01-13T05:16:02.710Z,98347.09
2023-01-13T05:18:31.703Z,98348.78
2023-01-13T05:20:59.210Z,98350.19
2023-01-13T05:23:45.346Z,98353.88
2023-01-13T05:26:12.616Z,98356.28
2023-01-13T05:28:39.871Z,98345.44
2023-01-13T05:31:07.231Z,98345.81
2023-01-13T05:33:35.846Z,98350.50
2023-01-13T05:36:04.430Z,98356.16
2023-01-13T05:38:34.317Z,98355.88
2023-01-13T05:41:20.588Z,98352.59
2023-01-13T05:43:48.022Z,98351.72
2023-01-13T05:46:17.697Z,98352.88
2023-01-13T05:48:45.514Z,98354.44
2023-01-13T05:51:14.000Z,98353.59
2023-01-13T05:53:41.786Z,98338.50
2023-01-13T05:56:11.289Z,98344.41
2023-01-13T05:58:38.707Z,98337.13
2023-01-13T06:01:09.794Z,98340.19
2023-01-13T06:03:38.111Z,98344.69
2023-01-13T06:06:08.798Z,98345.94
2023-01-13T06:08:38.042Z,98336.47
2023-01-13T06:11:06.729Z,98346.00
2023-01-13T06:13:34.043Z,98346.69
2023-01-13T06:16:01.405Z,98346.13
2023-01-13T06:18:29.631Z,98347.72
2023-01-13T06:20:57.560Z,98339.97
2023-01-13T06:23:25.026Z,98342.47
2023-01-13T06:26:19.552Z,98344.59
2023-01-13T06:28:46.888Z,98345.38
2023-01-13T06:31:14.431Z,98352.22
2023-01-13T06:33:53.891Z,98356.13
2023-01-13T06:36:29.488Z,98354.03
2023-01-13T06:39:02.541Z,98360.53
2023-01-13T06:41:52.234Z,98370.09
2023-01-13T06:44:21.682Z,98366.16
2023-01-13T06:46:49.187Z,98369.44
2023-01-13T06:49:16.777Z,98360.50
2023-01-13T06:51:44.226Z,98367.22
2023-01-13T06:54:30.561Z,98359.41
2023-01-13T06:56:57.849Z,98354.44
2023-01-13T06:59:25.856Z,98353.72
2023-01-13T07:01:53.483Z,98347.59
2023-01-13T07:04:20.837Z,98349.22
2023-01-13T07:06:48.114Z,98347.50
2023-01-13T07:09:15.384Z,98342.94
2023-01-13T07:11:47.270Z,98344.34
2023-01-13T07:14:33.664Z,98349.50
2023-01-13T07:17:00.882Z,98350.31
2023-01-13T07:19:28.325Z,98354.50
2023-01-13T07:21:55.760Z,98347.19
2023-01-13T07:24:23.111Z,98354.78
2023-01-13T07:26:52.536Z,98361.13
2023-01-13T07:29:19.977Z,98352.38
2023-01-13T07:31:49.852Z,98348.28
2023-01-13T07:34:17.683Z,98350.88
2023-01-13T07:36:44.917Z,98348.03
2023-01-13T07:39:12.148Z,98360.03
2023-01-13T07:41:58.519Z,98356.16
2023-01-13T07:44:25.919Z,98366.72
2023-01-13T07:46:53.347Z,98373.97
2023-01-13T07:49:20.559Z,98366.75
2023-01-13T07:51:47.862Z,98380.34
2023-01-13T07:54:15.259Z,98378.44
2023-01-13T07:56:42.784Z,98378.44
2023-01-13T07:59:09.979Z,98377.50
2023-01-13T08:01:37.652Z,98375.25
2023-01-13T08:04:05.352Z,98366.03
2023-01-13T08:06:33.091Z,98372.88
2023-01-13T08:09:00.588Z,98373.97
2023-01-13T08:11:28.127Z,98377.81
2023-01-13T08:14:00.475Z,98382.03
2023-01-13T08:16:28.321Z,98379.78
2023-01-13T08:18:55.973Z,98385.59
2023-01-13T08:21:23.398Z,98382.22
2023-01-13T08:23:51.190Z,98379.50
2023-01-13T08:26:19.106Z,98375.31
2023-01-13T08:28:46.757Z,98377.59
2023-01-13T08:31:17.122Z,98387.72
2023-01-13T08:33:44.626Z,98387.69
2023-01-13T08:36:13.345Z,98393.75
2023-01-13T08:38:42.054Z,98400.09
2023-01-13T08:41:36.701Z,98406.66
2023-01-13T08:44:06.585Z,98408.66
2023-01-13T08:46:33.877Z,98400.88
2023-01-13T08:49:01.445Z,98402.56
2023-01-13T08:51:28.833Z,98417.09
2023-01-13T08:53:56.535Z,98436.34
2023-01-13T08:56:24.084Z,98439.41
2023-01-13T08:58:51.467Z,98451.63
2023-01-13T09:01:23.420Z,98451.09
2023-01-13T09:03:51.539Z,98454.75
2023-01-13T09:06:19.962Z,98467.53
2023-01-13T09:08:48.174Z,98473.13
2023-01-13T09:11:57.433Z,98470.91
2023-01-13T09:14:28.416Z,98479.47
2023-01-13T09:16:56.245Z,98481.91
2023-01-13T09:19:23.853Z,98485.63
2023-01-13T09:21:52.610Z,98486.50
2023-01-13T09:24:20.985Z,98478.91
2023-01-13T09:26:49.008Z,98484.69
2023-01-13T09:29:17.563Z,98489.88
2023-01-13T09:31:45.500Z,98498.25
2023-01-13T09:34:40.133Z,98494.91
2023-01-13T09:37:08.985Z,98506.03
2023-01-13T09:39:37.158Z,98508.56
2023-01-13T09:43:16.245Z,98508.34
2023-01-13T09:46:47.037Z,98514.84
2023-01-13T09:49:33.725Z,98525.50
2023-01-13T09:52:09.268Z,98520.38
2023-01-13T09:55:10.998Z,98517.88
2023-01-13T09:57:39.948Z,98521.72
2023-01-13T10:00:27.871Z,98514.81
2023-01-13T10:03:20.806Z,98522.28
2023-01-13T10:06:31.621Z,98520.19
2023-01-13T10:08:59.250Z,98522.44
2023-01-13T10:11:57.145Z,98534.63
2023-01-13T10:14:34.312Z,98535.00
2023-01-13T10:17:21.426Z,98531.66
2023-01-13T10:20:53.726Z,98550.19
2023-01-13T10:23:37.916Z,98540.44
2023-01-13T10:26:42.390Z,98543.88
2023-01-13T10:29:28.839Z,98554.81
2023-01-13T10:31:59.938Z,98542.81
2023-01-13T10:34:29.683Z,98557.97
2023-01-13T10:37:08.356Z,98545.53
2023-01-13T10:39:44.497Z,98546.72
2023-01-13T10:42:18.352Z,98551.31
2023-01-13T10:45:00.192Z,98548.25
2023-01-13T10:47:33.798Z,98542.38
2023-01-13T10:50:13.047Z,98546.88
2023-01-13T10:53:00.881Z,98539.63
2023-01-13T10:55:33.626Z,98546.31
2023-01-13T10:58:21.573Z,98541.56
2023-01-13T11:00:59.836Z,98548.25
2023-01-13T11:03:37.641Z,98560.41
2023-01-13T11:06:05.798Z,98557.03
2023-01-13T11:08:45.692Z,98564.56
2023-01-13T11:11:35.121Z,98569.16
2023-01-13T11:14:33.031Z,98577.97
2023-01-13T11:17:32.233Z,98576.03
2023-01-13T11:20:32.478Z,98579.91
2023-01-13T11:23:25.391Z,98583.22
2023-01-13T11:26:05.570Z,98587.59
2023-01-13T11:29:02.809Z,98589.63
2023-01-13T11:31:41.220Z,98594.50
2023-01-13T11:34:32.644Z,98594.75
2023-01-13T11:37:25.924Z,98598.06
2023-01-13T11:40:12.213Z,98601.94
2023-01-13T11:43:12.938Z,98611.88
2023-01-13T11:45:53.566Z,98603.44
2023-01-13T11:48:27.605Z,98609.97
2023-01-13T11:51:04.632Z,98599.75
2023-01-13T11:54:46.304Z,98597.22
2023-01-13T11:57:38.890Z,98617.41
2023-01-13T12:00:44.780Z,98613.97
2023-01-13T12:03:42.036Z,98606.16
2023-01-13T12:06:38.239Z,98604.63
2023-01-13T12:09:37.432Z,98607.69
2023-01-13T12:12:49.321Z,98597.50
2023-01-13T12:15:52.060Z,98599.25
2023-01-13T12:19:07.540Z,98598.28
2023-01-13T12:22:27.675Z,98595.69
2023-01-13T12:25:39.630Z,98604.66
2023-01-13T12:29:03.686Z,98620.59
2023-01-13T12:31:37.119Z,98620.25
2023-01-13T12:35:01.837Z,98624.16
2023-01-13T12:38:29.938Z,98637.09
2023-01-13T12:41:30.772Z,98659.47
2023-01-13T12:44:17.567Z,98648.72
2023-01-13T12:46:56.224Z,98650.41
2023-01-13T12:49:36.231Z,98650.16
2023-01-13T12:52:15.627Z,98657.19
2023-01-13T12:54:43.529Z,98664.75
2023-01-13T12:57:28.205Z,98662.44
2023-01-13T13:00:17.104Z,98655.41
2023-01-13T13:03:18.604Z,98662.22
2023-01-13T13:06:10.726Z,98681.81
2023-01-13T13:09:06.589Z,98681.13
2023-01-13T13:11:59.512Z,98669.44
2023-01-13T13:14:42.207Z,98661.81
2023-01-13T13:17:28.486Z,98657.91
2023-01-13T13:20:01.427Z,98650.34
2023-01-13T13:22:28.775Z,98653.84
2023-01-13T13:24:56.393Z,98646.69
2023-01-13T13:28:09.771Z,98646.88
2023-01-13T13:30:54.947Z,98642.25
2023-01-13T13:33:36.578Z,98643.75
2023-01-13T13:37:25.147Z,98641.38
2023-01-13T13:40:12.354Z,98641.84
2023-01-13T13:43:15.460Z,98652.44
2023-01-13T13:46:11.405Z,98651.09
2023-01-13T13:48:39.229Z,98647.69
2023-01-13T13:51:40.870Z,98653.19
2023-01-13T13:54:21.015Z,98664.44
2023-01-13T13:56:52.124Z,98649.03
2023-01-13T13:59:30.480Z,98664.44
2023-01-13T14:02:02.179Z,98668.53
2023-01-13T14:04:35.483Z,98681.59
2023-01-13T14:07:21.108Z,98691.50
2023-01-13T14:09:54.496Z,98696.16
2023-01-13T14:12:27.482Z,98693.78
2023-01-13T14:14:57.545Z,98696.00
2023-01-13T14:17:31.051Z,98692.91
2023-01-13T14:20:04.998Z,98712.44
2023-01-13T14:22:33.165Z,98709.16
2023-01-13T14:25:02.081Z,98708.38
2023-01-13T14:27:31.218Z,98708.63
2023-01-13T14:30:03.262Z,98717.47
2023-01-13T14:32:36.811Z,98727.50
2023-01-13T14:35:08.906Z,98734.31
2023-01-13T14:37:42.967Z,98735.81
2023-01-13T14:40:36.279Z,98734.75
2023-01-13T14:43:14.489Z,98743.66
2023-01-13T14:46:00.630Z,98733.47
2023-01-13T14:48:35.953Z,98728.84
2023-01-13T14:51:11.628Z,98736.69
2023-01-13T14:53:48.147Z,98737.13
2023-01-13T14:56:53.888Z,98746.81
2023-01-13T14:59:44.129Z,98763.28
2023-01-13T15:02:40.258Z,98764.63
2023-01-13T15:05:20.194Z,98786.06
2023-01-13T15:08:09.887Z,98798.66
2023-01-13T15:11:01.118Z,98788.28
2023-01-13T15:13:53.006Z,98794.03
2023-01-13T15:16:28.082Z,98800.06
2023-01-13T15:18:57.004Z,98779.63
2023-01-13T15:21:25.438Z,98783.09
2023-01-13T15:23:53.207Z,98785.72
2023-01-13T15:26:30.207Z,98795.06
2023-01-13T15:28:59.394Z,98787.78
2023-01-13T15:31:28.549Z,98794.59
2023-01-13T15:33:56.164Z,98786.22
2023-01-13T15:36:34.777Z,98793.97
2023-01-13T15:39:02.735Z,98793.28
2023-01-13T15:41:49.126Z,98810.22
2023-01-13T15:44:36.169Z,98812.53
2023-01-13T15:47:08.569Z,98814.53
2023-01-13T15:49:45.804Z,98819.00
2023-01-13T15:52:26.913Z,98819.75
2023-01-13T15:54:55.558Z,98821.44
2023-01-13T15:57:31.550Z,98835.66
2023-01-13T16:00:14.439Z,98832.88
2023-01-13T16:02:44.456Z,98840.34
2023-01-13T16:05:12.371Z,98825.16
2023-01-13T16:07:40.128Z,98838.56
2023-01-13T16:10:23.151Z,98841.03
2023-01-13T16:12:51.142Z,98858.38
2023-01-13T16:15:22.962Z,98860.63
2023-01-13T16:18:02.094Z,98868.84
2023-01-13T16:20:30.780Z,98869.22
2023-01-13T16:22:58.190Z,98879.31
2023-01-13T16:25:27.676Z,98886.09
2023-01-13T16:27:55.170Z,98883.16
2023-01-13T16:30:34.340Z,98883.84
2023-01-13T16:33:03.416Z,98888.94
2023-01-13T16:35:35.317Z,98886.16
2023-01-13T16:38:02.896Z,98892.78
2023-01-13T16:40:36.670Z,98897.13
2023-01-13T16:43:06.836Z,98889.53
2023-01-13T16:45:34.813Z,98896.31
2023-01-13T16:48:03.120Z,98902.81
2023-01-13T16:50:37.630Z,98902.72
2023-01-13T16:53:06.315Z,98910.47
2023-01-13T16:55:33.872Z,98903.72
2023-01-13T16:58:02.360Z,98900.06
2023-01-13T17:00:31.179Z,98906.75
2023-01-13T17:03:01.325Z,98901.09
2023-01-13T17:05:29.317Z,98912.47
2023-01-13T17:07:57.551Z,98913.97
2023-01-13T17:10:26.578Z,98914.38
2023-01-13T17:13:00.039Z,98918.13
2023-01-13T17:15:34.300Z,98930.03
2023-01-13T17:18:11.878Z,98933.44
2023-01-13T17:20:39.928Z,98937.97
2023-01-13T17:23:07.403Z,98928.59
2023-01-13T17:25:35.114Z,98948.72
2023-01-13T17:28:03.939Z,98957.09
2023-01-13T17:30:34.453Z,98958.69
2023-01-13T17:33:01.814Z,98950.13
2023-01-13T17:35:29.141Z,98966.09
2023-01-13T17:38:04.184Z,98969.38
2023-01-13T17:40:31.497Z,98964.53
2023-01-13T17:42:59.024Z,98965.94
2023-01-13T17:45:26.534Z,98968.97
2023-01-13T17:48:14.379Z,98971.28
2023-01-13T17:50:55.822Z,98982.03
2023-01-13T17:53:23.387Z,98974.25
2023-01-13T17:55:56.473Z,98989.31
2023-01-13T17:58:24.388Z,98988.84
2023-01-13T18:00:53.616Z,98992.19
2023-01-13T18:03:21.594Z,99002.56
2023-01-13T18:05:54.434Z,99003.41
2023-01-13T18:08:23.653Z,98998.75
2023-01-13T18:11:00.718Z,98998.97
2023-01-13T18:13:34.797Z,99005.91
2023-01-13T18:16:11.816Z,99010.25
2023-01-13T18:18:44.535Z,99014.47
2023-01-13T18:21:46.022Z,99013.16
2023-01-13T18:24:36.028Z,99004.00
2023-01-13T18:27:18.993Z,99004.69
2023-01-13T18:29:47.488Z,99009.91
2023-01-13T18:32:15.797Z,99018.31
2023-01-13T18:34:43.833Z,99041.31
2023-01-13T18:37:16.513Z,99033.16
2023-01-13T18:39:44.575Z,99039.31
2023-01-13T18:42:31.037Z,99042.25
2023-01-13T18:45:21.101Z,99046.47
2023-01-13T18:48:20.144Z,99051.16
2023-01-13T18:50:47.493Z,99056.59
2023-01-13T18:53:14.929Z,99065.38
2023-01-13T18:55:43.260Z,99069.38
2023-01-13T18:58:11.013Z,99079.91
2023-01-13T19:00:38.699Z,99072.28
2023-01-13T19:05:39.304Z,99096.31
2023-01-13T19:08:07.123Z,99101.56
2023-01-13T19:10:34.977Z,99089.69
2023-01-13T19:13:03.229Z,99093.84
2023-01-13T19:15:41.627Z,99099.56
2023-01-13T19:18:09.323Z,99103.63
2023-01-13T19:20:38.441Z,99104.72
2023-01-13T19:23:08.468Z,99112.09
2023-01-13T19:25:37.462Z,99109.88
2023-01-13T19:28:09.342Z,99125.81
2023-01-13T19:30:41.734Z,99136.28
2023-01-13T19:33:11.668Z,99131.50
2023-01-13T19:35:39.501Z,99146.66
2023-01-13T19:38:07.193Z,99140.16
2023-01-13T19:40:35.085Z,99153.69
2023-01-13T19:43:23.789Z,99159.13
2023-01-13T19:45:52.214Z,99162.28
2023-01-13T19:48:21.176Z,99165.38
2023-01-13T19:50:49.724Z,99174.38
2023-01-13T19:53:18.038Z,99156.97
2023-01-13T19:55:48.669Z,99161.38
2023-01-13T19:58:18.942Z,99160.59
2023-01-13T20:00:48.162Z,99174.31
2023-01-13T20:03:26.201Z,99182.00
2023-01-13T20:05:55.381Z,99200.19
2023-01-13T20:08:23.767Z,99190.78
2023-01-13T20:11:11.201Z,99183.59
2023-01-13T20:13:38.681Z,99186.06
2023-01-13T20:16:06.797Z,99171.31
2023-01-13T20:18:36.585Z,99180.06
2023-01-13T20:21:06.818Z,99184.94
2023-01-13T20:23:34.164Z,99190.56
2023-01-13T20:26:02.428Z,99188.63
2023-01-13T20:28:29.919Z,99186.78
2023-01-13T20:30:57.504Z,99186.81
2023-01-13T20:33:24.883Z,99194.38
2023-01-13T20:35:59.680Z,99195.34
2023-01-13T20:38:36.056Z,99193.00
2023-01-13T20:42:14.052Z,99199.22
2023-01-13T20:48:21.602Z,99194.00
2023-01-13T20:50:54.354Z,99202.47
2023-01-13T20:53:21.684Z,99194.00
2023-01-13T20:55:49.246Z,99204.34
2023-01-13T20:58:16.677Z,99207.88
2023-01-13T21:00:44.498Z,99212.22
2023-01-13T21:03:15.018Z,99225.38
2023-01-13T21:05:42.743Z,99217.97
2023-01-13T21:08:10.087Z,99213.38
2023-01-13T21:10:37.746Z,99201.16
2023-01-13T21:13:31.937Z,99200.66
2023-01-13T21:15:59.783Z,99216.91
2023-01-13T21:18:45.956Z,99219.63
2023-01-13T21:21:13.378Z,99236.41
2023-01-13T21:23:47.456Z,99235.34
2023-01-13T21:26:15.774Z,99230.25
2023-01-13T21:28:43.230Z,99237.97
2023-01-13T21:31:11.469Z,99231.81
2023-01-13T21:33:39.471Z,99238.56
2023-01-13T21:36:15.302Z,99243.22
2023-01-13T21:38:43.092Z,99237.03
2023-01-13T21:41:13.108Z,99250.53
2023-01-13T21:44:00.147Z,99241.03
2023-01-13T21:46:49.458Z,99241.09
2023-01-13T21:49:17.436Z,99245.25
2023-01-13T21:51:45.139Z,99246.63
2023-01-13T21:54:18.064Z,99248.63
2023-01-13T21:56:45.981Z,99255.81
2023-01-13T21:59:13.290Z,99256.47
2023-01-13T22:02:08.741Z,99266.28
2023-01-13T22:04:28.521Z,99273.28
2023-01-13T22:06:56.284Z,99279.28
2023-01-13T22:09:24.175Z,99283.94
2023-01-13T22:11:51.623Z,99291.59
2023-01-13T22:14:24.788Z,99287.75
2023-01-13T22:16:53.600Z,99291.78
2023-01-13T22:19:20.987Z,99289.66
2023-01-13T22:21:48.227Z,99283.88
2023-01-13T22:24:15.680Z,99287.53
2023-01-13T22:26:45.737Z,99281.22
2023-01-13T22:29:13.203Z,99289.47
2023-01-13T22:31:40.459Z,99296.69
2023-01-13T22:34:07.791Z,99288.50
2023-01-13T22:36:35.000Z,99306.78
2023-01-13T22:39:02.414Z,99292.94
2023-01-13T22:41:29.786Z,99289.94
2023-01-13T22:43:59.552Z,99290.22
2023-01-13T22:46:27.130Z,99291.34
2023-01-13T22:48:55.898Z,99280.34
2023-01-13T22:51:23.636Z,99299.88
2023-01-13T22:53:51.207Z,99289.78
2023-01-13T22:56:33.358Z,99286.38
2023-01-13T22:59:04.245Z,99283.75
2023-01-13T23:01:35.482Z,99292.88
2023-01-13T23:04:03.891Z,99292.00
2023-01-13T23:06:34.611Z,99286.44
2023-01-13T23:09:05.187Z,99277.88
2023-01-13T23:11:32.688Z,99277.72
2023-01-13T23:14:05.278Z,99275.00
2023-01-13T23:16:37.704Z,99274.25
2023-01-13T23:19:07.697Z,99288.31
2023-01-13T23:21:37.701Z,99278.63
2023-01-13T23:24:06.970Z,99293.97
2023-01-13T23:26:35.632Z,99297.69
2023-01-13T23:29:08.765Z,99286.28
2023-01-13T23:31:36.241Z,99288.97
2023-01-13T23:34:03.649Z,99282.78
2023-01-13T23:36:31.256Z,99281.38
2023-01-13T23:39:00.141Z,99281.59
2023-01-13T23:41:28.491Z,99279.00
2023-01-13T23:44:00.872Z,99269.63
2023-01-13T23:46:31.137Z,99280.50
2023-01-13T23:48:58.496Z,99268.88
2023-01-13T23:51:27.485Z,99269.72
2023-01-13T23:53:54.942Z,99271.94
2023-01-13T23:56:31.563Z,99278.19
2023-01-13T23:58:59.146Z,99272.25
